Cutler, Maine
Current Conditions -  °F | °C
As of 10:35 AM on Thursday 18 Dec 2014 (Local Time) from KBHB Reporting Station
Overcast Overcast  
Wind Chill: 29°   Ceiling: 1400
Heat Index: 34°   Visibility: 3mi
Dew Point: 32°   Wind: 6mph
Humidity: 93%   Direction: 300°WNW
Pressure: 29.6"   Gusts: NA
Location:  44.66°N, 67.2°W
Report Text: KBHB 181535Z AUTO 30005KT 3SM FEW008 BKN014 OVC027 01/00 A2960 RMK AO1
Loading
Personal Weather Stations






























Interactive Weather Map New forecast layout! Learn more

10-Day Weather Forecast

Advertisements
Track Severe Weather on mobile